Time;durP1;ratioP1;P1;durP2;ratioP2;P2;SDS_P1;SDS_P2;PMS_P1;PMS_P2;Temp;Humidity;BMP_temperature;BMP_pressure;BME280_temperature;BME280_humidity;BME280_pressure;Samples;Min_cycle;Max_cycle;Signal;HPM_P1;HPM_P2
2023/08/06 00:01:13;;;;;;;2.78;2.50;;;20.70;69.00;;;;;;5052144;28;20542;-65
2023/08/06 00:03:38;;;;;;;4.43;2.85;;;20.70;69.00;;;;;;5053154;28;20205;-66
2023/08/06 00:06:07;;;;;;;4.32;2.67;;;20.70;69.10;;;;;;5053641;28;20171;-65
2023/08/06 00:08:32;;;;;;;3.33;2.80;;;20.70;69.00;;;;;;5053243;28;20207;-65
2023/08/06 00:10:58;;;;;;;5.03;2.83;;;20.70;69.00;;;;;;5053748;28;20629;-64
2023/08/06 00:13:23;;;;;;;3.10;2.67;;;20.70;69.10;;;;;;5053944;28;20676;-64
2023/08/06 00:15:49;;;;;;;3.30;2.47;;;20.70;69.10;;;;;;5053001;28;20213;-64
2023/08/06 00:18:14;;;;;;;4.93;2.95;;;20.70;69.10;;;;;;5053472;28;20577;-64
2023/08/06 00:20:41;;;;;;;3.42;2.72;;;20.70;70.00;;;;;;5053501;28;20229;-64
2023/08/06 00:23:07;;;;;;;3.88;2.70;;;20.70;69.10;;;;;;5052205;28;20638;-64
2023/08/06 00:25:33;;;;;;;3.85;2.80;;;20.70;69.10;;;;;;5052903;28;20186;-64
2023/08/06 00:27:58;;;;;;;2.60;2.40;;;20.70;69.10;;;;;;5053182;28;20215;-64
2023/08/06 00:30:24;;;;;;;2.75;2.50;;;20.70;69.10;;;;;;5052334;28;20175;-64
2023/08/06 00:32:49;;;;;;;4.35;2.75;;;20.60;69.10;;;;;;5053011;28;20262;-66
2023/08/06 00:35:15;;;;;;;2.88;2.45;;;20.60;69.10;;;;;;5052980;28;20179;-66
2023/08/06 00:37:40;;;;;;;2.50;2.30;;;20.70;69.20;;;;;;5051653;28;20552;-66
2023/08/06 00:40:07;;;;;;;4.75;2.88;;;20.70;69.10;;;;;;5052958;28;20182;-65
2023/08/06 00:42:34;;;;;;;3.00;2.80;;;20.60;69.10;;;;;;5053121;28;20590;-65
2023/08/06 00:45:00;;;;;;;3.70;2.60;;;20.70;69.10;;;;;;5051993;28;20179;-65
2023/08/06 00:47:25;;;;;;;2.80;2.60;;;20.60;69.10;;;;;;5052347;28;20207;-64
2023/08/06 00:49:51;;;;;;;2.55;2.35;;;20.60;69.20;;;;;;5051607;28;20274;-64
2023/08/06 00:52:16;;;;;;;3.42;2.70;;;20.60;69.10;;;;;;5051962;28;20175;-64
2023/08/06 00:54:42;;;;;;;3.30;2.55;;;20.60;69.20;;;;;;5051940;28;20516;-64
2023/08/06 00:57:08;;;;;;;2.72;2.53;;;20.70;69.20;;;;;;5052749;28;20167;-64
2023/08/06 00:59:34;;;;;;;2.65;2.40;;;20.60;69.20;;;;;;5034495;28;20175;-65
2023/08/06 01:01:59;;;;;;;2.78;2.53;;;20.60;69.20;;;;;;5051195;28;20225;-64
2023/08/06 01:04:25;;;;;;;4.05;2.97;;;20.60;69.30;;;;;;5052766;28;20229;-66
2023/08/06 01:06:55;;;;;;;3.63;2.83;;;20.60;70.10;;;;;;5051256;28;20203;-64
2023/08/06 01:10:04;;;;;;;4.60;2.80;;;20.60;69.20;;;;;;5050039;28;20262;-64
2023/08/06 01:12:40;;;;;;;2.47;2.28;;;20.60;69.20;;;;;;5049444;28;20186;-65
2023/08/06 01:15:11;;;;;;;2.75;2.50;;;20.60;69.20;;;;;;5050536;28;20209;-63
2023/08/06 01:17:36;;;;;;;3.22;2.38;;;20.60;69.40;;;;;;5050551;28;20178;-64
2023/08/06 01:20:02;;;;;;;4.72;2.65;;;20.60;69.40;;;;;;5051122;28;20183;-65
2023/08/06 01:22:28;;;;;;;2.58;2.38;;;20.60;69.40;;;;;;5052170;28;20194;-65
2023/08/06 01:24:53;;;;;;;3.88;2.55;;;20.70;69.40;;;;;;5052552;28;20205;-65
2023/08/06 01:27:28;;;;;;;4.72;2.45;;;20.60;69.30;;;;;;5050666;28;20190;-66
2023/08/06 01:30:04;;;;;;;2.78;2.58;;;20.60;69.40;;;;;;5051448;28;20225;-65
2023/08/06 01:32:30;;;;;;;3.35;2.75;;;20.70;69.40;;;;;;5052076;28;20210;-66
2023/08/06 01:34:56;;;;;;;2.58;2.38;;;20.70;69.40;;;;;;5049844;28;20665;-66
2023/08/06 01:37:21;;;;;;;3.58;2.35;;;20.60;69.50;;;;;;5051697;28;20173;-67
2023/08/06 01:39:47;;;;;;;4.18;2.40;;;20.70;69.50;;;;;;5050308;28;20179;-66
2023/08/06 01:42:12;;;;;;;4.03;2.30;;;20.60;69.60;;;;;;5051358;28;20222;-66
2023/08/06 01:44:38;;;;;;;2.85;2.42;;;20.60;69.50;;;;;;5052129;28;20225;-66
2023/08/06 01:47:04;;;;;;;2.63;2.42;;;20.60;69.50;;;;;;5050205;28;20246;-64
2023/08/06 01:49:30;;;;;;;3.00;2.70;;;20.60;69.50;;;;;;5055512;28;20167;-64
2023/08/06 01:51:55;;;;;;;4.28;2.58;;;20.60;69.50;;;;;;5058868;28;20182;-64
2023/08/06 01:54:21;;;;;;;3.80;2.40;;;20.60;69.50;;;;;;5057800;28;20171;-63
2023/08/06 01:56:46;;;;;;;2.80;2.45;;;20.70;69.60;;;;;;5058633;28;20187;-64
2023/08/06 01:59:12;;;;;;;3.42;2.35;;;20.50;69.50;;;;;;5058666;28;20171;-65
2023/08/06 02:01:37;;;;;;;2.95;2.65;;;20.60;70.50;;;;;;5058220;28;20163;-66
2023/08/06 02:04:03;;;;;;;5.00;2.50;;;20.60;69.60;;;;;;5058437;28;20214;-65
2023/08/06 02:06:28;;;;;;;3.90;2.80;;;20.50;69.60;;;;;;5058380;28;20198;-65
2023/08/06 02:08:54;;;;;;;3.05;2.75;;;20.60;69.60;;;;;;5057978;28;20186;-64
2023/08/06 02:11:19;;;;;;;2.97;2.08;;;20.60;70.50;;;;;;5057249;28;20182;-64
2023/08/06 02:13:46;;;;;;;2.83;2.63;;;20.60;69.60;;;;;;5058645;28;20324;-63
2023/08/06 02:16:11;;;;;;;2.80;2.40;;;20.60;69.70;;;;;;5057881;28;20171;-63
2023/08/06 02:18:37;;;;;;;3.75;2.50;;;20.50;69.60;;;;;;5057762;28;20202;-64
2023/08/06 02:21:02;;;;;;;3.13;2.35;;;20.60;69.70;;;;;;5057424;28;20242;-63
2023/08/06 02:23:28;;;;;;;2.35;2.15;;;20.60;69.60;;;;;;5057066;28;20206;-64
2023/08/06 02:26:03;;;;;;;2.78;2.47;;;20.50;69.50;;;;;;5057485;28;20536;-62
2023/08/06 02:28:30;;;;;;;3.35;2.40;;;20.50;69.60;;;;;;5058176;28;20210;-63
2023/08/06 02:30:55;;;;;;;2.30;2.13;;;20.50;69.60;;;;;;5057548;28;20270;-64
2023/08/06 02:33:21;;;;;;;2.78;2.50;;;20.50;69.60;;;;;;5058347;28;20283;-65
2023/08/06 02:35:46;;;;;;;3.10;2.28;;;20.60;69.60;;;;;;5058305;28;20175;-66
2023/08/06 02:38:12;;;;;;;2.40;2.20;;;20.50;69.60;;;;;;5056956;28;20179;-65
2023/08/06 02:40:45;;;;;;;2.58;2.38;;;20.50;69.50;;;;;;5058258;28;20511;-66
2023/08/06 02:43:11;;;;;;;2.67;2.40;;;20.50;69.60;;;;;;5057185;28;20636;-65
2023/08/06 02:45:37;;;;;;;2.55;2.33;;;20.50;69.50;;;;;;5058445;28;20277;-65
2023/08/06 02:48:03;;;;;;;2.33;2.13;;;20.50;69.50;;;;;;5057460;28;20217;-64
2023/08/06 02:50:28;;;;;;;3.08;2.88;;;20.50;69.50;;;;;;5057792;28;20179;-64
2023/08/06 02:52:54;;;;;;;2.35;2.15;;;20.50;69.60;;;;;;5058262;28;20587;-64
2023/08/06 02:55:19;;;;;;;2.33;2.13;;;20.50;69.50;;;;;;5057990;28;20171;-64
2023/08/06 02:57:45;;;;;;;2.20;2.10;;;20.50;69.50;;;;;;5057825;28;20175;-65
2023/08/06 03:00:11;;;;;;;2.38;2.10;;;20.50;70.40;;;;;;5057306;28;20170;-65
2023/08/06 03:02:37;;;;;;;2.53;2.33;;;20.50;69.50;;;;;;5054870;28;20202;-66
2023/08/06 03:05:03;;;;;;;2.30;2.10;;;20.50;69.60;;;;;;5054047;28;20222;-65
2023/08/06 03:07:29;;;;;;;2.50;2.30;;;20.50;69.60;;;;;;5054422;28;20195;-65
2023/08/06 03:09:57;;;;;;;2.20;2.00;;;20.50;69.50;;;;;;5055172;28;20179;-65
2023/08/06 03:12:22;;;;;;;2.40;2.17;;;20.50;69.60;;;;;;5054404;28;20179;-64
2023/08/06 03:14:48;;;;;;;2.47;2.15;;;20.50;69.60;;;;;;5054933;28;20630;-64
2023/08/06 03:17:15;;;;;;;2.25;2.03;;;20.50;69.60;;;;;;5054621;28;20202;-64
2023/08/06 03:19:40;;;;;;;5.13;2.05;;;20.50;69.60;;;;;;5054197;28;20179;-64
2023/08/06 03:22:06;;;;;;;2.28;1.77;;;20.50;69.60;;;;;;5054381;28;20764;-64
2023/08/06 03:24:31;;;;;;;2.15;1.85;;;20.50;69.60;;;;;;5053675;28;20175;-64
2023/08/06 03:26:57;;;;;;;2.13;1.90;;;20.40;69.50;;;;;;5052509;28;20190;-63
2023/08/06 03:29:23;;;;;;;4.30;2.33;;;20.50;69.60;;;;;;5054469;28;20179;-64
2023/08/06 03:31:48;;;;;;;2.53;2.33;;;20.50;69.50;;;;;;5053746;28;20175;-65
2023/08/06 03:34:14;;;;;;;2.25;1.83;;;20.50;69.60;;;;;;5053008;28;20200;-65
2023/08/06 03:36:39;;;;;;;2.78;1.80;;;20.50;69.50;;;;;;5054461;28;20541;-67
2023/08/06 03:39:05;;;;;;;2.58;2.38;;;20.50;70.40;;;;;;5054231;28;20540;-65
2023/08/06 03:41:30;;;;;;;2.28;2.13;;;20.50;70.40;;;;;;5053805;28;20522;-66
2023/08/06 03:43:56;;;;;;;2.40;2.20;;;20.50;69.60;;;;;;5054349;28;20564;-64
2023/08/06 03:46:21;;;;;;;2.60;2.40;;;20.50;69.60;;;;;;5054036;28;20525;-64
2023/08/06 03:48:50;;;;;;;2.50;2.30;;;20.50;69.60;;;;;;5053710;28;20210;-65
2023/08/06 03:51:15;;;;;;;2.42;2.22;;;20.70;69.70;;;;;;5053711;28;20530;-64
2023/08/06 03:53:41;;;;;;;2.63;2.33;;;20.50;69.60;;;;;;5053627;28;20606;-64
2023/08/06 03:56:06;;;;;;;2.38;2.17;;;20.50;69.60;;;;;;5053818;28;20168;-64
2023/08/06 03:58:32;;;;;;;2.63;2.30;;;20.50;69.60;;;;;;5054001;28;20175;-65
2023/08/06 04:01:01;;;;;;;2.33;2.20;;;20.50;69.60;;;;;;5051946;28;20178;-65
2023/08/06 04:03:27;;;;;;;1.98;1.88;;;20.50;69.70;;;;;;5053130;28;20549;-66
2023/08/06 04:05:52;;;;;;;2.70;2.20;;;20.40;70.40;;;;;;5052597;28;20175;-65
2023/08/06 04:08:18;;;;;;;2.13;2.00;;;20.40;69.50;;;;;;5052407;28;20254;-66
2023/08/06 04:10:43;;;;;;;2.33;2.13;;;20.50;69.60;;;;;;5054025;28;20707;-64
2023/08/06 04:13:09;;;;;;;2.25;2.10;;;20.40;70.40;;;;;;5052457;28;20217;-64
2023/08/06 04:15:34;;;;;;;2.42;2.20;;;20.40;69.60;;;;;;5053263;28;20194;-64
2023/08/06 04:18:00;;;;;;;2.42;2.22;;;20.40;69.60;;;;;;5052843;28;20175;-64
2023/08/06 04:20:26;;;;;;;2.00;1.80;;;20.50;69.60;;;;;;5053601;28;20541;-64
2023/08/06 04:22:53;;;;;;;2.63;2.35;;;20.40;69.60;;;;;;5053162;28;20217;-63
2023/08/06 04:25:20;;;;;;;2.35;2.15;;;20.40;69.60;;;;;;5053396;28;20240;-63
2023/08/06 04:27:47;;;;;;;2.78;2.15;;;20.40;69.60;;;;;;5053088;28;20219;-64
2023/08/06 04:30:12;;;;;;;1.92;1.83;;;20.40;69.60;;;;;;5052495;28;20179;-64
2023/08/06 04:32:39;;;;;;;2.20;2.00;;;20.40;69.60;;;;;;5053315;28;20171;-65
2023/08/06 04:35:05;;;;;;;2.28;2.08;;;20.40;69.60;;;;;;5053011;28;20203;-65
2023/08/06 04:37:30;;;;;;;2.33;1.90;;;20.40;69.60;;;;;;5052804;28;20213;-66
2023/08/06 04:39:56;;;;;;;2.13;1.92;;;20.40;69.60;;;;;;5053195;28;20171;-65
2023/08/06 04:42:21;;;;;;;2.30;2.20;;;20.40;69.60;;;;;;5052601;28;20230;-65
2023/08/06 04:44:47;;;;;;;2.50;2.30;;;20.40;69.60;;;;;;5051705;28;20198;-65
2023/08/06 04:47:12;;;;;;;2.17;1.98;;;20.40;69.60;;;;;;5052618;28;20276;-64
2023/08/06 04:49:38;;;;;;;2.53;2.33;;;20.40;69.60;;;;;;5051236;28;20212;-64
2023/08/06 04:52:04;;;;;;;3.13;2.45;;;20.40;70.50;;;;;;5052543;28;20207;-64
2023/08/06 04:54:29;;;;;;;2.10;2.00;;;20.40;69.60;;;;;;5052872;28;20179;-64
2023/08/06 04:56:55;;;;;;;2.30;2.08;;;20.40;69.60;;;;;;5052287;28;20171;-64
2023/08/06 04:59:20;;;;;;;2.47;2.00;;;20.40;69.60;;;;;;5052860;28;20220;-65
2023/08/06 05:01:46;;;;;;;2.72;1.80;;;20.40;69.60;;;;;;5052815;28;20546;-65
2023/08/06 05:04:11;;;;;;;1.85;1.75;;;20.40;69.60;;;;;;5051076;28;20190;-65
2023/08/06 05:06:41;;;;;;;2.28;2.10;;;20.40;69.70;;;;;;5052708;28;20641;-66
2023/08/06 05:09:06;;;;;;;2.25;2.05;;;20.40;69.70;;;;;;5052515;28;20213;-64
2023/08/06 05:11:32;;;;;;;2.20;2.00;;;20.40;70.50;;;;;;5051720;28;20175;-63
2023/08/06 05:13:57;;;;;;;2.42;2.10;;;20.40;69.70;;;;;;5051369;28;20274;-63
2023/08/06 05:16:23;;;;;;;2.13;1.90;;;20.40;69.70;;;;;;5052659;28;20177;-64
2023/08/06 05:18:49;;;;;;;2.83;2.42;;;20.40;70.60;;;;;;5051147;28;20266;-64
2023/08/06 05:21:16;;;;;;;2.55;2.35;;;20.40;69.70;;;;;;5052124;28;20498;-64
2023/08/06 05:23:42;;;;;;;1.98;1.88;;;20.40;69.70;;;;;;5052227;28;20254;-64
2023/08/06 05:26:07;;;;;;;1.98;1.88;;;20.40;70.50;;;;;;5051554;28;20217;-63
2023/08/06 05:28:33;;;;;;;2.00;1.90;;;20.40;69.80;;;;;;5052471;28;20237;-64
2023/08/06 05:31:02;;;;;;;2.70;2.50;;;20.40;69.70;;;;;;5052298;28;20179;-64
2023/08/06 05:33:28;;;;;;;2.70;2.03;;;20.40;69.70;;;;;;5050593;28;20186;-65
2023/08/06 05:35:53;;;;;;;2.63;2.42;;;20.40;69.80;;;;;;5052645;28;20171;-66
2023/08/06 05:38:19;;;;;;;2.90;2.53;;;20.40;69.70;;;;;;5052242;28;20258;-66
2023/08/06 05:40:44;;;;;;;2.10;2.00;;;20.40;69.80;;;;;;5051718;28;20194;-66
2023/08/06 05:43:10;;;;;;;4.75;2.25;;;20.40;69.70;;;;;;5050966;28;20234;-65
2023/08/06 05:45:35;;;;;;;2.10;2.00;;;20.40;69.80;;;;;;5051525;28;20179;-64
2023/08/06 05:48:01;;;;;;;2.42;2.22;;;20.40;69.70;;;;;;5050434;28;20206;-64
2023/08/06 05:50:26;;;;;;;2.08;1.98;;;20.40;70.60;;;;;;5050779;28;20170;-64
2023/08/06 05:52:52;;;;;;;2.40;2.20;;;20.40;69.80;;;;;;5052257;28;20212;-64
2023/08/06 05:55:18;;;;;;;2.30;2.10;;;20.40;69.70;;;;;;5050817;28;20175;-64
2023/08/06 05:57:44;;;;;;;2.35;1.95;;;20.40;69.70;;;;;;5052239;28;20179;-64
2023/08/06 06:00:10;;;;;;;2.47;1.92;;;20.40;69.80;;;;;;5051116;28;20186;-65
2023/08/06 06:02:35;;;;;;;2.13;2.03;;;20.40;69.70;;;;;;5052021;28;20175;-65
2023/08/06 06:05:01;;;;;;;2.70;2.17;;;20.40;69.70;;;;;;5052041;28;20179;-66
2023/08/06 06:07:26;;;;;;;1.90;1.80;;;20.40;69.80;;;;;;5051498;28;20214;-65
2023/08/06 06:09:52;;;;;;;3.17;2.28;;;20.30;69.70;;;;;;5052089;28;20255;-65
2023/08/06 06:12:18;;;;;;;2.00;1.90;;;20.40;69.80;;;;;;5051848;28;20182;-64
2023/08/06 06:14:43;;;;;;;1.98;1.88;;;20.40;69.80;;;;;;5051431;28;20569;-63
2023/08/06 06:17:09;;;;;;;1.90;1.80;;;20.40;69.70;;;;;;5051891;28;20167;-64
2023/08/06 06:19:34;;;;;;;2.30;2.20;;;20.40;69.80;;;;;;5051861;28;20195;-64
2023/08/06 06:22:00;;;;;;;2.20;2.10;;;20.40;69.80;;;;;;5051102;28;20175;-64
2023/08/06 06:24:25;;;;;;;2.13;2.03;;;20.40;69.80;;;;;;5052131;28;20646;-64
2023/08/06 06:26:51;;;;;;;1.98;1.88;;;20.40;70.60;;;;;;5051986;28;20199;-64
2023/08/06 06:29:16;;;;;;;2.38;2.17;;;20.40;69.80;;;;;;5050813;28;20188;-64
2023/08/06 06:31:42;;;;;;;2.33;2.13;;;20.40;69.80;;;;;;5051495;28;20674;-65
2023/08/06 06:34:07;;;;;;;2.33;2.13;;;20.40;69.80;;;;;;5051396;28;20179;-66
2023/08/06 06:36:33;;;;;;;2.03;1.83;;;20.40;69.80;;;;;;5052852;28;20249;-66
2023/08/06 06:38:58;;;;;;;2.10;2.00;;;20.40;69.80;;;;;;5055389;28;20638;-65
2023/08/06 06:41:26;;;;;;;2.20;2.05;;;20.40;70.70;;;;;;5055474;28;20622;-66
2023/08/06 06:43:51;;;;;;;2.00;1.80;;;20.40;69.80;;;;;;5054835;28;20186;-64
2023/08/06 06:46:17;;;;;;;1.98;1.88;;;20.40;69.90;;;;;;5055284;28;20167;-65
2023/08/06 06:48:42;;;;;;;2.22;2.03;;;20.30;69.80;;;;;;5055276;28;20294;-65
2023/08/06 06:51:08;;;;;;;2.38;1.88;;;20.40;69.90;;;;;;5054102;28;20186;-64
2023/08/06 06:53:33;;;;;;;2.58;1.80;;;20.40;69.90;;;;;;5055334;28;20183;-64
2023/08/06 06:56:03;;;;;;;2.10;2.00;;;20.40;69.90;;;;;;5054952;28;20183;-63
2023/08/06 06:58:29;;;;;;;1.80;1.70;;;20.40;69.90;;;;;;5053989;28;20186;-64
2023/08/06 07:00:54;;;;;;;2.03;1.92;;;20.40;69.90;;;;;;5055056;28;20179;-65
2023/08/06 07:03:20;;;;;;;1.80;1.70;;;20.40;69.80;;;;;;5054506;28;20175;-65
2023/08/06 07:05:46;;;;;;;2.70;2.00;;;20.40;69.80;;;;;;5055295;28;20639;-65
2023/08/06 07:08:11;;;;;;;2.15;1.90;;;20.40;69.80;;;;;;5054632;28;20218;-66
2023/08/06 07:10:37;;;;;;;2.47;1.95;;;20.40;69.80;;;;;;5054008;28;20179;-65
2023/08/06 07:13:03;;;;;;;2.58;1.80;;;20.40;69.70;;;;;;5054588;28;20183;-64
2023/08/06 07:15:29;;;;;;;1.83;1.73;;;20.40;69.80;;;;;;5054795;28;20641;-64
2023/08/06 07:17:54;;;;;;;2.10;1.95;;;20.40;69.90;;;;;;5054414;28;20171;-64
2023/08/06 07:20:20;;;;;;;2.50;1.90;;;20.40;69.90;;;;;;5054286;28;20241;-64
2023/08/06 07:22:46;;;;;;;2.47;2.28;;;20.40;70.10;;;;;;5054538;28;20254;-65
2023/08/06 07:25:11;;;;;;;1.75;1.65;;;20.50;70.20;;;;;;5053744;28;20203;-64
2023/08/06 07:27:37;;;;;;;1.95;1.85;;;20.40;70.10;;;;;;5054450;28;20198;-64
2023/08/06 07:30:03;;;;;;;2.05;1.95;;;20.40;70.30;;;;;;5054311;28;20187;-64
2023/08/06 07:32:28;;;;;;;2.40;2.20;;;20.40;70.40;;;;;;5053667;28;20694;-65
2023/08/06 07:34:59;;;;;;;2.00;1.90;;;20.40;70.30;;;;;;5054547;28;20265;-65
2023/08/06 07:37:24;;;;;;;2.35;2.05;;;20.40;71.20;;;;;;5054614;28;20657;-65
2023/08/06 07:39:50;;;;;;;1.50;1.40;;;20.40;70.30;;;;;;5053691;28;20195;-65
2023/08/06 07:42:16;;;;;;;2.40;2.20;;;20.40;70.40;;;;;;5053799;28;20227;-65
2023/08/06 07:44:41;;;;;;;2.60;1.90;;;20.40;70.40;;;;;;5054344;28;20187;-65
2023/08/06 07:47:07;;;;;;;2.33;2.13;;;20.50;71.40;;;;;;5053035;28;20249;-64
2023/08/06 07:49:32;;;;;;;2.33;2.13;;;20.40;71.40;;;;;;5054472;28;20205;-64
2023/08/06 07:51:58;;;;;;;3.28;2.00;;;20.50;70.50;;;;;;5053700;28;20171;-64
2023/08/06 07:54:24;;;;;;;2.33;1.92;;;20.40;70.50;;;;;;5053384;28;20176;-64
2023/08/06 07:56:50;;;;;;;2.20;2.00;;;20.50;70.50;;;;;;5053977;28;20167;-64
2023/08/06 07:59:15;;;;;;;1.90;1.80;;;20.50;70.60;;;;;;5053697;28;20183;-65
2023/08/06 08:01:41;;;;;;;2.10;2.00;;;20.50;70.60;;;;;;5053757;28;20676;-66
2023/08/06 08:04:06;;;;;;;1.70;1.60;;;20.50;70.60;;;;;;5054031;28;20176;-66
2023/08/06 08:06:33;;;;;;;2.75;1.85;;;20.40;70.50;;;;;;5054132;28;20630;-66
2023/08/06 08:08:58;;;;;;;2.30;2.10;;;20.40;70.50;;;;;;5052297;28;20261;-64
2023/08/06 08:11:25;;;;;;;1.95;1.83;;;20.40;70.50;;;;;;5053838;28;20171;-64
2023/08/06 08:13:51;;;;;;;2.17;1.90;;;20.50;70.60;;;;;;5053014;28;20642;-64
2023/08/06 08:16:16;;;;;;;2.03;1.92;;;20.50;70.60;;;;;;5053405;28;20228;-63
2023/08/06 08:18:42;;;;;;;2.22;2.03;;;20.50;70.50;;;;;;5053778;28;20179;-64
2023/08/06 08:21:07;;;;;;;2.10;2.00;;;20.50;70.50;;;;;;5052028;28;20607;-64
2023/08/06 08:23:33;;;;;;;2.75;1.92;;;20.50;70.50;;;;;;5053697;28;20730;-64
2023/08/06 08:25:59;;;;;;;2.55;2.10;;;20.50;70.50;;;;;;5053303;28;20510;-63
2023/08/06 08:28:24;;;;;;;3.33;1.60;;;20.50;70.50;;;;;;5052396;28;20238;-64
2023/08/06 08:30:50;;;;;;;2.05;1.95;;;20.50;70.50;;;;;;5053721;28;20657;-64
2023/08/06 08:33:15;;;;;;;2.55;2.35;;;20.50;71.40;;;;;;5053314;28;20572;-66
2023/08/06 08:35:41;;;;;;;1.73;1.63;;;20.40;70.50;;;;;;5052568;28;20206;-66
2023/08/06 08:38:06;;;;;;;2.13;2.00;;;20.50;70.60;;;;;;5053066;28;20179;-65
2023/08/06 08:40:32;;;;;;;2.25;1.90;;;20.50;70.60;;;;;;5053137;28;20171;-66
2023/08/06 08:42:59;;;;;;;2.20;2.00;;;20.50;70.60;;;;;;5050780;28;20226;-64
2023/08/06 08:45:26;;;;;;;2.28;2.08;;;20.40;70.60;;;;;;5053293;28;20175;-65
2023/08/06 08:47:51;;;;;;;2.30;1.85;;;20.40;70.60;;;;;;5051858;28;20222;-64
2023/08/06 08:50:17;;;;;;;2.20;2.00;;;20.50;70.60;;;;;;5050616;28;20170;-64
2023/08/06 08:52:42;;;;;;;2.55;1.80;;;20.40;70.60;;;;;;5053060;28;20626;-63
2023/08/06 08:55:08;;;;;;;2.00;1.90;;;20.40;70.60;;;;;;5051641;28;20253;-63
2023/08/06 08:57:34;;;;;;;1.90;1.80;;;20.40;70.60;;;;;;5051005;28;20262;-64
2023/08/06 08:59:59;;;;;;;2.17;2.00;;;20.50;70.70;;;;;;5052307;28;20179;-64
2023/08/06 09:02:26;;;;;;;1.90;1.80;;;20.40;70.60;;;;;;5053050;28;20597;-65
2023/08/06 09:04:51;;;;;;;2.47;2.28;;;20.40;70.60;;;;;;5050820;28;20266;-65
2023/08/06 09:07:18;;;;;;;2.40;2.20;;;20.40;70.50;;;;;;5051236;28;20285;-65
2023/08/06 09:09:43;;;;;;;1.95;1.85;;;20.40;70.60;;;;;;5051571;28;20257;-64
2023/08/06 09:12:14;;;;;;;1.90;1.80;;;20.50;70.60;;;;;;5049442;28;20261;-64
2023/08/06 09:14:40;;;;;;;2.10;1.90;;;20.40;70.50;;;;;;5052406;28;20685;-63
2023/08/06 09:17:06;;;;;;;2.45;2.00;;;20.40;70.60;;;;;;5051338;28;20184;-64
2023/08/06 09:19:31;;;;;;;2.47;2.15;;;20.40;70.60;;;;;;5052300;28;20190;-64
2023/08/06 09:21:57;;;;;;;2.85;2.03;;;20.50;70.60;;;;;;5051787;28;20545;-64
2023/08/06 09:24:23;;;;;;;2.08;1.98;;;20.50;70.60;;;;;;5050590;28;20179;-64
2023/08/06 09:26:48;;;;;;;2.17;2.08;;;20.40;70.50;;;;;;5052192;28;20180;-63
2023/08/06 09:29:16;;;;;;;2.50;2.20;;;20.50;70.50;;;;;;5052033;28;20232;-64
2023/08/06 09:31:46;;;;;;;1.98;1.88;;;20.40;70.40;;;;;;5051865;28;20186;-64
2023/08/06 09:34:21;;;;;;;2.20;2.00;;;20.50;70.50;;;;;;5052162;28;20183;-65
2023/08/06 09:36:48;;;;;;;2.00;1.90;;;20.50;70.50;;;;;;5031222;28;20293;-65
2023/08/06 09:39:15;;;;;;;1.90;1.80;;;20.50;70.40;;;;;;5031403;28;20188;-65
2023/08/06 09:41:41;;;;;;;2.10;1.90;;;20.50;70.40;;;;;;5031897;28;20273;-65
2023/08/06 09:44:17;;;;;;;3.15;2.10;;;20.50;70.40;;;;;;5031924;28;20187;-64
2023/08/06 09:46:49;;;;;;;2.03;1.73;;;20.50;70.30;;;;;;5031696;28;20172;-63
2023/08/06 09:49:18;;;;;;;2.03;1.83;;;20.50;70.40;;;;;;5035638;28;20328;-64
2023/08/06 09:51:44;;;;;;;3.20;2.03;;;20.50;70.40;;;;;;5051343;28;20210;-63
2023/08/06 09:54:13;;;;;;;2.28;2.10;;;20.50;70.40;;;;;;5050766;28;20647;-64
2023/08/06 09:56:39;;;;;;;2.88;2.05;;;20.50;70.40;;;;;;5034664;28;20171;-62
2023/08/06 09:59:08;;;;;;;3.22;2.20;;;20.50;70.60;;;;;;5051310;28;20182;-64
2023/08/06 10:01:34;;;;;;;4.15;2.30;;;20.50;70.30;;;;;;5052064;28;20179;-66
2023/08/06 10:04:01;;;;;;;4.20;1.98;;;20.50;70.40;;;;;;5051538;28;20189;-66
2023/08/06 10:06:31;;;;;;;2.50;1.98;;;20.50;70.40;;;;;;5051319;28;20179;-66
2023/08/06 10:08:56;;;;;;;4.95;2.70;;;20.50;70.50;;;;;;5050551;28;20246;-65
2023/08/06 10:11:23;;;;;;;4.28;2.30;;;20.50;70.90;;;;;;5054257;28;20627;-65
2023/08/06 10:13:49;;;;;;;3.92;2.92;;;20.50;70.70;;;;;;5054485;28;20262;-65
2023/08/06 10:16:15;;;;;;;7.75;2.92;;;20.50;71.30;;;;;;5054600;28;20529;-67
2023/08/06 10:18:41;;;;;;;3.83;3.22;;;20.50;71.80;;;;;;5055801;28;20609;-68
2023/08/06 10:21:09;;;;;;;4.82;2.95;;;20.60;71.30;;;;;;5037032;28;20194;-67
2023/08/06 10:23:38;;;;;;;3.78;2.97;;;20.60;71.60;;;;;;5056096;28;20175;-67
2023/08/06 10:26:03;;;;;;;4.78;3.22;;;20.60;71.50;;;;;;5055688;28;20179;-65
2023/08/06 10:28:38;;;;;;;4.85;2.90;;;20.60;72.60;;;;;;5054501;28;20261;-67
2023/08/06 10:31:04;;;;;;;6.90;4.00;;;20.60;71.80;;;;;;5055451;28;20236;-65
2023/08/06 10:33:43;;;;;;;6.43;3.90;;;20.60;72.00;;;;;;5055836;28;20250;-67
2023/08/06 10:36:12;;;;;;;6.07;3.40;;;20.70;72.30;;;;;;5054815;28;20233;-67
2023/08/06 10:38:48;;;;;;;6.35;3.95;;;20.70;72.40;;;;;;5055510;28;20191;-68
2023/08/06 10:41:29;;;;;;;5.15;3.80;;;20.70;72.40;;;;;;5055360;28;20186;-67
2023/08/06 10:44:08;;;;;;;7.72;4.70;;;20.70;72.40;;;;;;5054307;28;20244;-67
2023/08/06 10:46:33;;;;;;;6.00;4.88;;;20.70;72.70;;;;;;5055706;28;20556;-67
2023/08/06 10:48:59;;;;;;;9.73;5.43;;;20.70;72.90;;;;;;5054186;28;20214;-66
2023/08/06 10:51:24;;;;;;;7.78;5.35;;;20.80;73.90;;;;;;5055168;28;20175;-66
2023/08/06 10:53:50;;;;;;;8.88;5.35;;;20.70;72.90;;;;;;5054135;28;20199;-66
2023/08/06 10:56:22;;;;;;;8.05;5.30;;;20.70;73.10;;;;;;5054174;28;20183;-66
2023/08/06 10:58:47;;;;;;;9.60;5.28;;;20.70;73.10;;;;;;5055047;28;20187;-67
2023/08/06 11:01:13;;;;;;;9.60;5.30;;;20.70;73.20;;;;;;5054822;28;20542;-67
2023/08/06 11:03:39;;;;;;;8.05;5.20;;;20.70;73.20;;;;;;5054556;28;20604;-67
2023/08/06 11:06:07;;;;;;;9.57;5.55;;;20.70;73.30;;;;;;5054883;28;20167;-66
2023/08/06 11:08:37;;;;;;;8.27;5.32;;;20.70;73.20;;;;;;5055012;28;20230;-66
2023/08/06 11:11:15;;;;;;;10.52;5.60;;;20.70;73.30;;;;;;5054365;28;20712;-65
2023/08/06 11:13:48;;;;;;;7.05;5.30;;;20.70;73.30;;;;;;5055030;28;20717;-66
2023/08/06 11:16:14;;;;;;;9.23;5.25;;;20.70;73.10;;;;;;5054782;28;20536;-67
2023/08/06 11:18:42;;;;;;;6.55;4.68;;;20.70;73.00;;;;;;5053129;28;20179;-67
2023/08/06 11:21:07;;;;;;;8.07;5.10;;;20.60;72.80;;;;;;5053879;28;20213;-66
2023/08/06 11:23:33;;;;;;;6.28;5.13;;;20.60;72.80;;;;;;5053684;28;20203;-67
2023/08/06 11:25:59;;;;;;;9.93;6.05;;;20.60;72.90;;;;;;5036955;28;20531;-66
2023/08/06 11:28:24;;;;;;;8.07;5.38;;;20.60;72.90;;;;;;5054290;28;20272;-66
2023/08/06 11:30:50;;;;;;;7.63;4.93;;;20.60;73.80;;;;;;5054158;28;20167;-65
2023/08/06 11:33:22;;;;;;;5.55;4.50;;;20.60;73.40;;;;;;5054150;28;20895;-63
2023/08/06 11:35:48;;;;;;;7.80;5.20;;;20.60;72.80;;;;;;5054522;28;20178;-63
2023/08/06 11:38:14;;;;;;;9.13;5.03;;;20.60;72.80;;;;;;5053711;28;20542;-64
2023/08/06 11:40:39;;;;;;;6.88;4.95;;;20.60;72.80;;;;;;5054157;28;20175;-63
2023/08/06 11:43:08;;;;;;;7.10;4.38;;;20.50;72.80;;;;;;5052177;28;20234;-63
2023/08/06 11:45:35;;;;;;;8.10;5.05;;;20.60;72.70;;;;;;5044681;28;20171;-62
2023/08/06 11:48:01;;;;;;;7.25;4.78;;;20.60;72.30;;;;;;5064607;28;20297;-63
2023/08/06 11:50:26;;;;;;;7.47;4.47;;;20.50;72.50;;;;;;5074310;28;20266;-62
2023/08/06 11:53:00;;;;;;;8.38;4.57;;;20.50;72.20;;;;;;5054961;28;20233;-63
2023/08/06 11:55:26;;;;;;;8.27;4.88;;;20.50;72.20;;;;;;5034111;28;20171;-66
2023/08/06 11:57:51;;;;;;;6.25;4.18;;;20.50;72.80;;;;;;5034229;28;20237;-66
2023/08/06 12:00:18;;;;;;;9.27;4.80;;;20.60;72.80;;;;;;5033158;28;20521;-67
2023/08/06 12:02:44;;;;;;;8.73;4.45;;;20.60;72.70;;;;;;5034091;28;20180;-67
2023/08/06 12:05:17;;;;;;;6.57;4.57;;;20.60;72.70;;;;;;5033990;28;20267;-68
2023/08/06 12:07:45;;;;;;;7.97;4.28;;;20.60;72.70;;;;;;5033468;28;20211;-67
2023/08/06 12:10:15;;;;;;;5.55;4.18;;;20.60;72.70;;;;;;5042657;28;20180;-67
2023/08/06 12:12:40;;;;;;;5.28;4.13;;;20.60;72.60;;;;;;5054012;28;20666;-66
2023/08/06 12:15:07;;;;;;;7.57;4.30;;;20.60;72.50;;;;;;5052970;28;20206;-66
2023/08/06 12:17:42;;;;;;;7.15;4.57;;;20.60;72.60;;;;;;5053755;28;20265;-67
2023/08/06 12:20:08;;;;;;;5.55;4.10;;;20.60;72.50;;;;;;5052854;28;20209;-66
2023/08/06 12:22:37;;;;;;;5.28;4.18;;;20.60;72.50;;;;;;5053959;28;20171;-66
2023/08/06 12:25:03;;;;;;;4.40;3.75;;;20.60;72.40;;;;;;5053377;28;20175;-65
2023/08/06 12:27:29;;;;;;;7.80;4.47;;;20.70;72.50;;;;;;5052808;28;20206;-65
2023/08/06 12:29:55;;;;;;;6.78;3.85;;;20.60;72.30;;;;;;5053360;28;20638;-65
2023/08/06 12:32:21;;;;;;;4.80;3.83;;;20.60;72.30;;;;;;5053189;28;20187;-67
2023/08/06 12:34:47;;;;;;;5.05;4.00;;;20.70;72.40;;;;;;5051957;28;20183;-65
2023/08/06 12:37:12;;;;;;;4.60;4.20;;;20.60;72.30;;;;;;5053192;28;20220;-66
2023/08/06 12:39:38;;;;;;;6.15;3.95;;;20.70;72.40;;;;;;5053094;28;20168;-65
2023/08/06 12:42:04;;;;;;;4.97;3.88;;;20.70;72.40;;;;;;5052207;28;20302;-64
2023/08/06 12:44:30;;;;;;;5.47;3.70;;;20.60;72.30;;;;;;5052522;28;20190;-67